sensor_id;sensor_type;location;lat;lon;timestamp;temperature;humidity
22532;DHT22;11432;46.924;7.114;2023-03-23T00:01:21;11.70;1.00
22532;DHT22;11432;46.924;7.114;2023-03-23T00:03:49;11.70;1.00
22532;DHT22;11432;46.924;7.114;2023-03-23T00:06:16;11.70;1.00
22532;DHT22;11432;46.924;7.114;2023-03-23T00:08:47;11.70;99.90
22532;DHT22;11432;46.924;7.114;2023-03-23T00:11:15;11.70;1.00
22532;DHT22;11432;46.924;7.114;2023-03-23T00:13:42;11.70;1.00
22532;DHT22;11432;46.924;7.114;2023-03-23T00:16:09;11.70;99.90
22532;DHT22;11432;46.924;7.114;2023-03-23T00:18:46;11.70;99.90
22532;DHT22;11432;46.924;7.114;2023-03-23T00:21:12;11.70;99.90
22532;DHT22;11432;46.924;7.114;2023-03-23T00:23:38;11.60;99.90
22532;DHT22;11432;46.924;7.114;2023-03-23T00:26:05;11.60;99.90
22532;DHT22;11432;46.924;7.114;2023-03-23T00:28:30;11.70;99.90
22532;DHT22;11432;46.924;7.114;2023-03-23T00:31:01;11.60;99.90
22532;DHT22;11432;46.924;7.114;2023-03-23T00:33:32;11.60;99.90
22532;DHT22;11432;46.924;7.114;2023-03-23T00:35:59;11.60;99.90
22532;DHT22;11432;46.924;7.114;2023-03-23T00:38:25;11.60;99.90
22532;DHT22;11432;46.924;7.114;2023-03-23T00:40:51;11.60;99.90
22532;DHT22;11432;46.924;7.114;2023-03-23T00:43:19;11.60;99.90
22532;DHT22;11432;46.924;7.114;2023-03-23T00:45:45;11.70;99.90
22532;DHT22;11432;46.924;7.114;2023-03-23T00:48:18;11.60;99.90
22532;DHT22;11432;46.924;7.114;2023-03-23T00:50:44;11.70;1.00
22532;DHT22;11432;46.924;7.114;2023-03-23T00:53:10;11.70;1.00
22532;DHT22;11432;46.924;7.114;2023-03-23T00:55:35;11.80;1.00
22532;DHT22;11432;46.924;7.114;2023-03-23T00:58:01;11.90;1.00
22532;DHT22;11432;46.924;7.114;2023-03-23T01:00:26;11.90;1.00
22532;DHT22;11432;46.924;7.114;2023-03-23T01:02:53;12.00;1.00
22532;DHT22;11432;46.924;7.114;2023-03-23T01:05:19;12.00;1.00
22532;DHT22;11432;46.924;7.114;2023-03-23T01:07:46;12.10;1.00
22532;DHT22;11432;46.924;7.114;2023-03-23T01:10:12;12.20;1.00
22532;DHT22;11432;46.924;7.114;2023-03-23T01:12:42;12.30;1.00
22532;DHT22;11432;46.924;7.114;2023-03-23T01:15:08;12.40;12.80
22532;DHT22;11432;46.924;7.114;2023-03-23T01:17:33;12.40;7.70
22532;DHT22;11432;46.924;7.114;2023-03-23T01:19:59;12.50;18.50
22532;DHT22;11432;46.924;7.114;2023-03-23T01:22:25;12.50;16.00
22532;DHT22;11432;46.924;7.114;2023-03-23T01:24:51;12.30;1.00
22532;DHT22;11432;46.924;7.114;2023-03-23T01:27:17;12.10;99.90
22532;DHT22;11432;46.924;7.114;2023-03-23T01:29:42;12.00;99.90
22532;DHT22;11432;46.924;7.114;2023-03-23T01:32:08;11.90;99.90
22532;DHT22;11432;46.924;7.114;2023-03-23T01:34:33;11.90;99.90
22532;DHT22;11432;46.924;7.114;2023-03-23T01:36:59;11.90;99.90
22532;DHT22;11432;46.924;7.114;2023-03-23T01:39:25;11.90;99.90
22532;DHT22;11432;46.924;7.114;2023-03-23T01:41:50;12.00;1.00
22532;DHT22;11432;46.924;7.114;2023-03-23T01:46:42;12.10;1.00
22532;DHT22;11432;46.924;7.114;2023-03-23T01:49:12;12.20;1.00
22532;DHT22;11432;46.924;7.114;2023-03-23T01:52:00;12.30;1.00
22532;DHT22;11432;46.924;7.114;2023-03-23T01:54:28;12.40;1.00
22532;DHT22;11432;46.924;7.114;2023-03-23T01:57:05;12.40;1.00
22532;DHT22;11432;46.924;7.114;2023-03-23T01:59:33;12.30;1.00
22532;DHT22;11432;46.924;7.114;2023-03-23T02:02:00;12.10;99.90
22532;DHT22;11432;46.924;7.114;2023-03-23T02:04:29;12.10;1.00
22532;DHT22;11432;46.924;7.114;2023-03-23T02:06:56;12.00;1.00
22532;DHT22;11432;46.924;7.114;2023-03-23T02:09:25;12.00;1.00
22532;DHT22;11432;46.924;7.114;2023-03-23T02:11:51;12.00;1.00
22532;DHT22;11432;46.924;7.114;2023-03-23T02:14:18;12.10;1.00
22532;DHT22;11432;46.924;7.114;2023-03-23T02:32:46;12.40;1.00
22532;DHT22;11432;46.924;7.114;2023-03-23T02:35:20;12.40;1.00
22532;DHT22;11432;46.924;7.114;2023-03-23T02:37:51;12.40;1.00
22532;DHT22;11432;46.924;7.114;2023-03-23T02:40:28;12.50;1.00
22532;DHT22;11432;46.924;7.114;2023-03-23T02:42:57;12.50;1.00
22532;DHT22;11432;46.924;7.114;2023-03-23T02:45:26;12.50;1.00
22532;DHT22;11432;46.924;7.114;2023-03-23T02:47:55;12.50;1.00
22532;DHT22;11432;46.924;7.114;2023-03-23T02:50:24;12.60;1.00
22532;DHT22;11432;46.924;7.114;2023-03-23T02:52:53;12.60;1.00
22532;DHT22;11432;46.924;7.114;2023-03-23T02:55:21;12.70;1.00
22532;DHT22;11432;46.924;7.114;2023-03-23T02:57:50;12.70;1.00
22532;DHT22;11432;46.924;7.114;2023-03-23T03:00:17;12.60;1.00
22532;DHT22;11432;46.924;7.114;2023-03-23T03:02:54;12.60;1.00
22532;DHT22;11432;46.924;7.114;2023-03-23T03:05:41;12.70;1.00
22532;DHT22;11432;46.924;7.114;2023-03-23T03:08:34;12.80;1.00
22532;DHT22;11432;46.924;7.114;2023-03-23T03:11:12;12.70;1.00
22532;DHT22;11432;46.924;7.114;2023-03-23T03:13:48;12.60;1.00
22532;DHT22;11432;46.924;7.114;2023-03-23T03:18:46;12.60;1.00
22532;DHT22;11432;46.924;7.114;2023-03-23T03:21:14;12.50;1.00
22532;DHT22;11432;46.924;7.114;2023-03-23T03:23:44;12.50;1.00
22532;DHT22;11432;46.924;7.114;2023-03-23T03:26:12;12.50;1.00
22532;DHT22;11432;46.924;7.114;2023-03-23T03:28:44;12.40;1.00
22532;DHT22;11432;46.924;7.114;2023-03-23T03:31:16;12.40;1.00
22532;DHT22;11432;46.924;7.114;2023-03-23T03:33:43;12.30;1.00
22532;DHT22;11432;46.924;7.114;2023-03-23T03:36:15;12.30;1.00
22532;DHT22;11432;46.924;7.114;2023-03-23T03:38:45;12.30;1.00
22532;DHT22;11432;46.924;7.114;2023-03-23T03:41:11;12.30;1.00
22532;DHT22;11432;46.924;7.114;2023-03-23T03:43:36;12.40;1.00
22532;DHT22;11432;46.924;7.114;2023-03-23T03:46:02;12.50;1.00
22532;DHT22;11432;46.924;7.114;2023-03-23T03:48:28;12.50;1.00
22532;DHT22;11432;46.924;7.114;2023-03-23T03:50:53;12.60;1.00
22532;DHT22;11432;46.924;7.114;2023-03-23T03:53:22;12.60;1.00
22532;DHT22;11432;46.924;7.114;2023-03-23T03:55:48;12.70;1.00
22532;DHT22;11432;46.924;7.114;2023-03-23T03:58:16;12.80;1.00
22532;DHT22;11432;46.924;7.114;2023-03-23T04:00:42;12.80;1.00
22532;DHT22;11432;46.924;7.114;2023-03-23T04:03:08;12.80;1.00
22532;DHT22;11432;46.924;7.114;2023-03-23T04:05:34;12.90;1.00
22532;DHT22;11432;46.924;7.114;2023-03-23T04:08:02;12.90;1.00
22532;DHT22;11432;46.924;7.114;2023-03-23T04:10:29;12.90;1.00
22532;DHT22;11432;46.924;7.114;2023-03-23T04:12:55;12.90;1.00
22532;DHT22;11432;46.924;7.114;2023-03-23T04:15:21;12.80;1.00
22532;DHT22;11432;46.924;7.114;2023-03-23T04:17:47;12.90;1.00
22532;DHT22;11432;46.924;7.114;2023-03-23T04:20:12;12.90;1.00
22532;DHT22;11432;46.924;7.114;2023-03-23T04:22:49;12.90;1.00
22532;DHT22;11432;46.924;7.114;2023-03-23T04:25:17;12.80;1.00
22532;DHT22;11432;46.924;7.114;2023-03-23T04:27:46;12.90;1.00
22532;DHT22;11432;46.924;7.114;2023-03-23T04:30:19;12.90;1.00
22532;DHT22;11432;46.924;7.114;2023-03-23T04:32:45;12.90;1.00
22532;DHT22;11432;46.924;7.114;2023-03-23T04:35:13;12.90;1.00
22532;DHT22;11432;46.924;7.114;2023-03-23T04:37:40;12.90;1.00
22532;DHT22;11432;46.924;7.114;2023-03-23T04:40:07;12.90;1.00
22532;DHT22;11432;46.924;7.114;2023-03-23T04:42:37;12.80;1.00
22532;DHT22;11432;46.924;7.114;2023-03-23T04:45:05;12.70;1.00
22532;DHT22;11432;46.924;7.114;2023-03-23T04:47:36;12.80;1.00
22532;DHT22;11432;46.924;7.114;2023-03-23T04:50:10;12.80;1.00
22532;DHT22;11432;46.924;7.114;2023-03-23T04:52:38;12.80;1.00
22532;DHT22;11432;46.924;7.114;2023-03-23T04:55:06;12.80;1.00
22532;DHT22;11432;46.924;7.114;2023-03-23T04:57:32;12.80;1.00
22532;DHT22;11432;46.924;7.114;2023-03-23T04:59:59;12.70;1.00
22532;DHT22;11432;46.924;7.114;2023-03-23T05:02:24;12.60;1.00
22532;DHT22;11432;46.924;7.114;2023-03-23T05:04:50;12.50;1.00
22532;DHT22;11432;46.924;7.114;2023-03-23T05:07:16;12.50;1.00
22532;DHT22;11432;46.924;7.114;2023-03-23T05:09:42;12.50;1.00
22532;DHT22;11432;46.924;7.114;2023-03-23T05:12:11;12.50;1.00
22532;DHT22;11432;46.924;7.114;2023-03-23T05:14:41;12.60;1.00
22532;DHT22;11432;46.924;7.114;2023-03-23T05:17:06;12.50;1.00
22532;DHT22;11432;46.924;7.114;2023-03-23T05:19:32;12.50;1.00
22532;DHT22;11432;46.924;7.114;2023-03-23T05:21:58;12.40;1.00
22532;DHT22;11432;46.924;7.114;2023-03-23T05:24:31;12.40;1.00
22532;DHT22;11432;46.924;7.114;2023-03-23T05:27:01;12.50;1.00
22532;DHT22;11432;46.924;7.114;2023-03-23T05:29:27;12.60;1.00
22532;DHT22;11432;46.924;7.114;2023-03-23T05:31:55;12.60;1.00
22532;DHT22;11432;46.924;7.114;2023-03-23T05:34:21;12.50;1.00
22532;DHT22;11432;46.924;7.114;2023-03-23T05:36:47;12.40;1.00
22532;DHT22;11432;46.924;7.114;2023-03-23T05:39:12;12.40;1.00
22532;DHT22;11432;46.924;7.114;2023-03-23T05:41:39;12.30;1.00
22532;DHT22;11432;46.924;7.114;2023-03-23T05:44:05;12.30;1.00
22532;DHT22;11432;46.924;7.114;2023-03-23T05:46:31;12.30;1.00
22532;DHT22;11432;46.924;7.114;2023-03-23T05:48:57;12.30;1.00
22532;DHT22;11432;46.924;7.114;2023-03-23T05:51:23;12.20;1.00
22532;DHT22;11432;46.924;7.114;2023-03-23T05:53:49;12.20;1.00
22532;DHT22;11432;46.924;7.114;2023-03-23T05:56:15;12.30;1.00
22532;DHT22;11432;46.924;7.114;2023-03-23T05:58:40;12.40;1.00
22532;DHT22;11432;46.924;7.114;2023-03-23T06:01:07;12.40;1.00
22532;DHT22;11432;46.924;7.114;2023-03-23T06:03:33;12.50;1.00
22532;DHT22;11432;46.924;7.114;2023-03-23T06:06:01;12.50;1.00
22532;DHT22;11432;46.924;7.114;2023-03-23T06:08:27;12.50;1.00
22532;DHT22;11432;46.924;7.114;2023-03-23T06:10:52;12.60;1.00
22532;DHT22;11432;46.924;7.114;2023-03-23T06:13:18;12.60;1.00
22532;DHT22;11432;46.924;7.114;2023-03-23T06:15:43;12.70;1.00
22532;DHT22;11432;46.924;7.114;2023-03-23T06:18:09;12.70;1.00
22532;DHT22;11432;46.924;7.114;2023-03-23T06:20:35;12.80;1.00
22532;DHT22;11432;46.924;7.114;2023-03-23T06:23:01;12.80;1.00
22532;DHT22;11432;46.924;7.114;2023-03-23T06:25:29;12.90;1.00
22532;DHT22;11432;46.924;7.114;2023-03-23T06:27:54;12.80;1.00
22532;DHT22;11432;46.924;7.114;2023-03-23T06:30:20;12.90;1.00
22532;DHT22;11432;46.924;7.114;2023-03-23T06:32:46;13.00;1.00
22532;DHT22;11432;46.924;7.114;2023-03-23T06:35:14;13.10;1.00
22532;DHT22;11432;46.924;7.114;2023-03-23T06:37:39;13.10;1.00
22532;DHT22;11432;46.924;7.114;2023-03-23T06:40:06;13.10;1.00
22532;DHT22;11432;46.924;7.114;2023-03-23T06:42:33;12.90;1.00
22532;DHT22;11432;46.924;7.114;2023-03-23T06:44:59;12.90;1.00
22532;DHT22;11432;46.924;7.114;2023-03-23T06:47:26;12.90;1.00
22532;DHT22;11432;46.924;7.114;2023-03-23T06:49:55;12.80;1.00
22532;DHT22;11432;46.924;7.114;2023-03-23T06:52:21;12.70;1.00
22532;DHT22;11432;46.924;7.114;2023-03-23T06:54:51;12.60;1.00
22532;DHT22;11432;46.924;7.114;2023-03-23T06:57:17;12.60;1.00
22532;DHT22;11432;46.924;7.114;2023-03-23T06:59:44;12.70;1.00
22532;DHT22;11432;46.924;7.114;2023-03-23T07:02:11;12.70;1.00
22532;DHT22;11432;46.924;7.114;2023-03-23T07:04:37;12.80;1.00
22532;DHT22;11432;46.924;7.114;2023-03-23T07:07:07;13.00;1.00
22532;DHT22;11432;46.924;7.114;2023-03-23T07:09:33;13.10;1.00
22532;DHT22;11432;46.924;7.114;2023-03-23T07:11:58;13.20;1.00
22532;DHT22;11432;46.924;7.114;2023-03-23T07:14:24;13.20;1.00
22532;DHT22;11432;46.924;7.114;2023-03-23T07:16:50;13.40;1.00
22532;DHT22;11432;46.924;7.114;2023-03-23T07:19:16;13.40;1.00
22532;DHT22;11432;46.924;7.114;2023-03-23T07:21:42;13.40;1.00
22532;DHT22;11432;46.924;7.114;2023-03-23T07:24:10;13.40;1.00
22532;DHT22;11432;46.924;7.114;2023-03-23T07:26:42;13.40;1.00
22532;DHT22;11432;46.924;7.114;2023-03-23T07:29:09;13.50;1.00
22532;DHT22;11432;46.924;7.114;2023-03-23T07:31:35;13.50;1.00
22532;DHT22;11432;46.924;7.114;2023-03-23T07:34:01;13.50;1.00
22532;DHT22;11432;46.924;7.114;2023-03-23T07:36:28;13.50;1.00
22532;DHT22;11432;46.924;7.114;2023-03-23T07:38:54;13.60;1.00
22532;DHT22;11432;46.924;7.114;2023-03-23T07:41:20;13.60;1.00
22532;DHT22;11432;46.924;7.114;2023-03-23T07:43:46;13.70;1.00
22532;DHT22;11432;46.924;7.114;2023-03-23T07:46:12;13.80;1.00
22532;DHT22;11432;46.924;7.114;2023-03-23T07:48:38;13.80;1.00
22532;DHT22;11432;46.924;7.114;2023-03-23T07:51:04;14.00;1.00
22532;DHT22;11432;46.924;7.114;2023-03-23T07:53:30;14.10;1.00
22532;DHT22;11432;46.924;7.114;2023-03-23T07:55:56;14.20;1.00
22532;DHT22;11432;46.924;7.114;2023-03-23T07:58:22;14.20;1.00
22532;DHT22;11432;46.924;7.114;2023-03-23T08:00:48;14.40;1.00
22532;DHT22;11432;46.924;7.114;2023-03-23T08:03:15;14.50;1.00
22532;DHT22;11432;46.924;7.114;2023-03-23T08:05:41;14.50;1.00
22532;DHT22;11432;46.924;7.114;2023-03-23T08:08:08;14.60;1.00
22532;DHT22;11432;46.924;7.114;2023-03-23T08:10:35;14.60;1.00
22532;DHT22;11432;46.924;7.114;2023-03-23T08:13:01;14.70;1.00
22532;DHT22;11432;46.924;7.114;2023-03-23T08:15:27;14.80;1.00
22532;DHT22;11432;46.924;7.114;2023-03-23T08:17:54;14.80;1.00
22532;DHT22;11432;46.924;7.114;2023-03-23T08:20:20;14.90;1.00
22532;DHT22;11432;46.924;7.114;2023-03-23T08:22:53;14.90;1.00
22532;DHT22;11432;46.924;7.114;2023-03-23T08:25:20;14.90;1.00
22532;DHT22;11432;46.924;7.114;2023-03-23T08:27:46;14.80;1.00
22532;DHT22;11432;46.924;7.114;2023-03-23T08:30:15;14.80;1.00
22532;DHT22;11432;46.924;7.114;2023-03-23T08:32:42;14.80;1.00
22532;DHT22;11432;46.924;7.114;2023-03-23T08:35:09;14.80;1.00
22532;DHT22;11432;46.924;7.114;2023-03-23T08:37:37;14.80;1.00
22532;DHT22;11432;46.924;7.114;2023-03-23T08:40:03;14.80;1.00
22532;DHT22;11432;46.924;7.114;2023-03-23T08:42:33;14.80;1.00
22532;DHT22;11432;46.924;7.114;2023-03-23T08:44:59;14.80;1.00
22532;DHT22;11432;46.924;7.114;2023-03-23T08:47:24;14.90;1.00
22532;DHT22;11432;46.924;7.114;2023-03-23T08:49:51;14.90;1.00
22532;DHT22;11432;46.924;7.114;2023-03-23T08:52:18;15.00;1.00
22532;DHT22;11432;46.924;7.114;2023-03-23T08:54:44;15.10;1.00
22532;DHT22;11432;46.924;7.114;2023-03-23T08:57:13;15.30;1.00
22532;DHT22;11432;46.924;7.114;2023-03-23T08:59:40;15.40;1.00
22532;DHT22;11432;46.924;7.114;2023-03-23T09:02:08;15.50;1.00
22532;DHT22;11432;46.924;7.114;2023-03-23T09:04:34;15.60;1.00
22532;DHT22;11432;46.924;7.114;2023-03-23T09:06:59;15.70;1.00
22532;DHT22;11432;46.924;7.114;2023-03-23T09:09:25;15.80;1.00
22532;DHT22;11432;46.924;7.114;2023-03-23T09:11:53;16.00;1.00
22532;DHT22;11432;46.924;7.114;2023-03-23T09:14:18;16.30;1.00
22532;DHT22;11432;46.924;7.114;2023-03-23T09:16:44;16.50;1.00
22532;DHT22;11432;46.924;7.114;2023-03-23T09:19:10;16.70;1.00
22532;DHT22;11432;46.924;7.114;2023-03-23T09:21:38;16.90;1.00
22532;DHT22;11432;46.924;7.114;2023-03-23T09:24:04;16.70;1.00
22532;DHT22;11432;46.924;7.114;2023-03-23T09:26:31;16.50;1.00
22532;DHT22;11432;46.924;7.114;2023-03-23T09:28:57;16.40;1.00
22532;DHT22;11432;46.924;7.114;2023-03-23T09:31:23;16.40;1.00
22532;DHT22;11432;46.924;7.114;2023-03-23T09:33:53;16.40;1.00
22532;DHT22;11432;46.924;7.114;2023-03-23T09:36:21;16.50;1.00
22532;DHT22;11432;46.924;7.114;2023-03-23T09:38:47;16.60;1.00
22532;DHT22;11432;46.924;7.114;2023-03-23T09:44:05;16.60;1.00
22532;DHT22;11432;46.924;7.114;2023-03-23T09:47:42;16.50;1.00
22532;DHT22;11432;46.924;7.114;2023-03-23T09:50:13;16.60;1.00
22532;DHT22;11432;46.924;7.114;2023-03-23T09:53:22;16.60;1.00
22532;DHT22;11432;46.924;7.114;2023-03-23T09:55:39;16.60;1.00
22532;DHT22;11432;46.924;7.114;2023-03-23T09:59:31;18.10;1.00
22532;DHT22;11432;46.924;7.114;2023-03-23T10:01:59;16.60;1.00
22532;DHT22;11432;46.924;7.114;2023-03-23T10:04:44;16.60;1.00
22532;DHT22;11432;46.924;7.114;2023-03-23T10:07:15;16.70;1.00
22532;DHT22;11432;46.924;7.114;2023-03-23T10:09:42;16.70;1.00
22532;DHT22;11432;46.924;7.114;2023-03-23T10:14:49;16.50;1.00
22532;DHT22;11432;46.924;7.114;2023-03-23T10:17:42;16.60;1.00
22532;DHT22;11432;46.924;7.114;2023-03-23T10:22:45;16.70;1.00
22532;DHT22;11432;46.924;7.114;2023-03-23T10:30:32;17.30;1.00
22532;DHT22;11432;46.924;7.114;2023-03-23T10:33:13;17.50;1.00
22532;DHT22;11432;46.924;7.114;2023-03-23T10:35:50;17.60;1.00
22532;DHT22;11432;46.924;7.114;2023-03-23T10:38:33;17.60;1.00
22532;DHT22;11432;46.924;7.114;2023-03-23T10:41:11;17.40;1.00
22532;DHT22;11432;46.924;7.114;2023-03-23T10:43:41;17.40;1.00
22532;DHT22;11432;46.924;7.114;2023-03-23T10:46:27;17.20;1.00
22532;DHT22;11432;46.924;7.114;2023-03-23T10:48:56;17.30;1.00
22532;DHT22;11432;46.924;7.114;2023-03-23T10:51:30;17.60;1.00
22532;DHT22;11432;46.924;7.114;2023-03-23T10:54:00;17.90;1.00
22532;DHT22;11432;46.924;7.114;2023-03-23T10:56:29;17.90;1.00
22532;DHT22;11432;46.924;7.114;2023-03-23T10:58:59;17.80;1.00
22532;DHT22;11432;46.924;7.114;2023-03-23T11:01:36;17.80;1.00
22532;DHT22;11432;46.924;7.114;2023-03-23T11:04:03;17.80;1.00
22532;DHT22;11432;46.924;7.114;2023-03-23T11:06:32;17.80;1.00
22532;DHT22;11432;46.924;7.114;2023-03-23T11:09:11;17.80;1.00
22532;DHT22;11432;46.924;7.114;2023-03-23T11:11:39;17.90;1.00
22532;DHT22;11432;46.924;7.114;2023-03-23T11:14:35;18.00;1.00
22532;DHT22;11432;46.924;7.114;2023-03-23T11:17:18;18.10;1.00
22532;DHT22;11432;46.924;7.114;2023-03-23T11:19:45;18.10;1.00
22532;DHT22;11432;46.924;7.114;2023-03-23T11:22:22;18.10;1.00
22532;DHT22;11432;46.924;7.114;2023-03-23T11:24:53;18.10;1.00
22532;DHT22;11432;46.924;7.114;2023-03-23T11:27:21;18.20;1.00
22532;DHT22;11432;46.924;7.114;2023-03-23T11:29:53;18.20;1.00
22532;DHT22;11432;46.924;7.114;2023-03-23T11:32:24;18.20;1.00
22532;DHT22;11432;46.924;7.114;2023-03-23T11:34:55;18.10;1.00
22532;DHT22;11432;46.924;7.114;2023-03-23T11:39:56;17.80;1.00
22532;DHT22;11432;46.924;7.114;2023-03-23T11:45:31;17.80;1.00
22532;DHT22;11432;46.924;7.114;2023-03-23T11:50:43;17.90;1.00
22532;DHT22;11432;46.924;7.114;2023-03-23T11:58:16;18.00;1.00
22532;DHT22;11432;46.924;7.114;2023-03-23T12:00:55;18.20;1.00
22532;DHT22;11432;46.924;7.114;2023-03-23T12:06:23;18.40;1.00
22532;DHT22;11432;46.924;7.114;2023-03-23T12:14:25;18.00;1.00
22532;DHT22;11432;46.924;7.114;2023-03-23T12:28:04;17.70;1.00
22532;DHT22;11432;46.924;7.114;2023-03-23T12:31:25;17.60;1.00
22532;DHT22;11432;46.924;7.114;2023-03-23T12:33:37;17.50;1.00
22532;DHT22;11432;46.924;7.114;2023-03-23T12:36:24;17.30;1.00
22532;DHT22;11432;46.924;7.114;2023-03-23T12:38:59;17.10;1.00
22532;DHT22;11432;46.924;7.114;2023-03-23T12:44:10;17.10;1.00
22532;DHT22;11432;46.924;7.114;2023-03-23T12:46:58;17.30;1.00
22532;DHT22;11432;46.924;7.114;2023-03-23T12:52:06;17.30;1.00
22532;DHT22;11432;46.924;7.114;2023-03-23T12:57:24;17.30;1.00
22532;DHT22;11432;46.924;7.114;2023-03-23T13:00:22;17.10;1.00
22532;DHT22;11432;46.924;7.114;2023-03-23T13:03:07;17.10;1.00
22532;DHT22;11432;46.924;7.114;2023-03-23T13:05:49;17.00;1.00
22532;DHT22;11432;46.924;7.114;2023-03-23T13:08:33;16.80;1.00
22532;DHT22;11432;46.924;7.114;2023-03-23T13:11:04;16.70;1.00
22532;DHT22;11432;46.924;7.114;2023-03-23T13:13:48;16.70;1.00
22532;DHT22;11432;46.924;7.114;2023-03-23T13:16:22;16.60;1.00
22532;DHT22;11432;46.924;7.114;2023-03-23T13:21:32;16.40;1.00
22532;DHT22;11432;46.924;7.114;2023-03-23T13:24:00;16.40;1.00
22532;DHT22;11432;46.924;7.114;2023-03-23T13:26:28;16.60;1.00
22532;DHT22;11432;46.924;7.114;2023-03-23T13:29:00;16.60;1.00
22532;DHT22;11432;46.924;7.114;2023-03-23T13:31:31;16.70;1.00
22532;DHT22;11432;46.924;7.114;2023-03-23T13:34:45;16.70;1.00
22532;DHT22;11432;46.924;7.114;2023-03-23T13:37:03;16.80;1.00
22532;DHT22;11432;46.924;7.114;2023-03-23T13:39:34;16.70;1.00
22532;DHT22;11432;46.924;7.114;2023-03-23T13:44:54;16.70;1.00
22532;DHT22;11432;46.924;7.114;2023-03-23T13:52:38;16.90;1.00
22532;DHT22;11432;46.924;7.114;2023-03-23T14:08:11;16.80;1.00
22532;DHT22;11432;46.924;7.114;2023-03-23T14:10:43;16.80;1.00
22532;DHT22;11432;46.924;7.114;2023-03-23T14:13:19;16.90;1.00
22532;DHT22;11432;46.924;7.114;2023-03-23T14:16:23;16.90;1.00
22532;DHT22;11432;46.924;7.114;2023-03-23T14:19:00;16.90;1.00
22532;DHT22;11432;46.924;7.114;2023-03-23T14:21:35;17.00;1.00
22532;DHT22;11432;46.924;7.114;2023-03-23T14:24:04;16.90;1.00
22532;DHT22;11432;46.924;7.114;2023-03-23T14:26:34;16.80;1.00
22532;DHT22;11432;46.924;7.114;2023-03-23T14:29:00;16.80;1.00
22532;DHT22;11432;46.924;7.114;2023-03-23T14:31:27;16.70;1.00
22532;DHT22;11432;46.924;7.114;2023-03-23T14:33:55;16.60;1.00
22532;DHT22;11432;46.924;7.114;2023-03-23T14:36:27;16.50;1.00
22532;DHT22;11432;46.924;7.114;2023-03-23T14:39:17;16.50;1.00
22532;DHT22;11432;46.924;7.114;2023-03-23T14:41:44;16.50;1.00
22532;DHT22;11432;46.924;7.114;2023-03-23T14:44:18;16.60;1.00
22532;DHT22;11432;46.924;7.114;2023-03-23T14:46:46;16.70;1.00
22532;DHT22;11432;46.924;7.114;2023-03-23T14:49:17;16.70;1.00
22532;DHT22;11432;46.924;7.114;2023-03-23T14:51:53;16.70;1.00
22532;DHT22;11432;46.924;7.114;2023-03-23T14:54:26;16.60;1.00
22532;DHT22;11432;46.924;7.114;2023-03-23T14:56:53;16.50;1.00
22532;DHT22;11432;46.924;7.114;2023-03-23T14:59:19;16.40;1.00
22532;DHT22;11432;46.924;7.114;2023-03-23T15:01:47;16.40;1.00
22532;DHT22;11432;46.924;7.114;2023-03-23T15:04:15;16.40;1.00
22532;DHT22;11432;46.924;7.114;2023-03-23T15:06:47;16.40;1.00
22532;DHT22;11432;46.924;7.114;2023-03-23T15:09:17;16.40;1.00
22532;DHT22;11432;46.924;7.114;2023-03-23T15:11:58;16.90;1.00
22532;DHT22;11432;46.924;7.114;2023-03-23T15:14:29;16.90;1.00
22532;DHT22;11432;46.924;7.114;2023-03-23T15:16:56;17.00;1.00
22532;DHT22;11432;46.924;7.114;2023-03-23T15:19:27;17.00;1.00
22532;DHT22;11432;46.924;7.114;2023-03-23T15:22:25;16.80;1.00
22532;DHT22;11432;46.924;7.114;2023-03-23T15:24:52;16.70;1.00
22532;DHT22;11432;46.924;7.114;2023-03-23T15:27:34;16.60;1.00
22532;DHT22;11432;46.924;7.114;2023-03-23T15:30:37;16.60;1.00
22532;DHT22;11432;46.924;7.114;2023-03-23T15:33:12;16.50;1.00
22532;DHT22;11432;46.924;7.114;2023-03-23T15:35:41;16.50;1.00
22532;DHT22;11432;46.924;7.114;2023-03-23T15:40:50;16.60;1.00
22532;DHT22;11432;46.924;7.114;2023-03-23T15:49:10;16.60;1.00
22532;DHT22;11432;46.924;7.114;2023-03-23T15:51:35;16.60;1.00
22532;DHT22;11432;46.924;7.114;2023-03-23T15:54:02;16.50;1.00
22532;DHT22;11432;46.924;7.114;2023-03-23T15:56:28;16.40;1.00
22532;DHT22;11432;46.924;7.114;2023-03-23T15:58:55;16.30;1.00
22532;DHT22;11432;46.924;7.114;2023-03-23T16:01:26;16.20;1.00
22532;DHT22;11432;46.924;7.114;2023-03-23T16:03:56;16.20;1.00
22532;DHT22;11432;46.924;7.114;2023-03-23T16:06:25;16.20;1.00
22532;DHT22;11432;46.924;7.114;2023-03-23T16:08:55;16.20;1.00
22532;DHT22;11432;46.924;7.114;2023-03-23T16:11:23;16.20;1.00
22532;DHT22;11432;46.924;7.114;2023-03-23T16:13:49;16.20;1.00
22532;DHT22;11432;46.924;7.114;2023-03-23T16:16:18;16.30;1.00
22532;DHT22;11432;46.924;7.114;2023-03-23T16:18:44;16.30;1.00
22532;DHT22;11432;46.924;7.114;2023-03-23T16:21:10;16.30;1.00
22532;DHT22;11432;46.924;7.114;2023-03-23T16:23:35;16.30;1.00
22532;DHT22;11432;46.924;7.114;2023-03-23T16:26:01;16.20;1.00
22532;DHT22;11432;46.924;7.114;2023-03-23T16:28:27;16.10;1.00
22532;DHT22;11432;46.924;7.114;2023-03-23T16:30:52;16.10;1.00
22532;DHT22;11432;46.924;7.114;2023-03-23T16:33:18;16.10;1.00
22532;DHT22;11432;46.924;7.114;2023-03-23T16:35:43;16.00;1.00
22532;DHT22;11432;46.924;7.114;2023-03-23T16:38:15;16.00;1.00
22532;DHT22;11432;46.924;7.114;2023-03-23T16:40:42;16.00;1.00
22532;DHT22;11432;46.924;7.114;2023-03-23T16:43:08;16.00;1.00
22532;DHT22;11432;46.924;7.114;2023-03-23T16:45:35;16.00;1.00
22532;DHT22;11432;46.924;7.114;2023-03-23T16:48:00;15.90;1.00
22532;DHT22;11432;46.924;7.114;2023-03-23T16:50:28;15.90;1.00
22532;DHT22;11432;46.924;7.114;2023-03-23T16:52:54;15.80;1.00
22532;DHT22;11432;46.924;7.114;2023-03-23T16:55:20;15.80;1.00
22532;DHT22;11432;46.924;7.114;2023-03-23T16:57:46;15.70;1.00
22532;DHT22;11432;46.924;7.114;2023-03-23T17:00:14;15.70;1.00
22532;DHT22;11432;46.924;7.114;2023-03-23T17:02:42;15.70;1.00
22532;DHT22;11432;46.924;7.114;2023-03-23T17:05:12;15.70;1.00
22532;DHT22;11432;46.924;7.114;2023-03-23T17:07:39;15.60;1.00
22532;DHT22;11432;46.924;7.114;2023-03-23T17:10:05;15.40;1.00
22532;DHT22;11432;46.924;7.114;2023-03-23T17:12:32;15.20;1.00
22532;DHT22;11432;46.924;7.114;2023-03-23T17:14:58;15.00;1.00
22532;DHT22;11432;46.924;7.114;2023-03-23T17:17:24;14.90;1.00
22532;DHT22;11432;46.924;7.114;2023-03-23T17:19:49;14.80;1.00
22532;DHT22;11432;46.924;7.114;2023-03-23T17:22:16;14.70;1.00
22532;DHT22;11432;46.924;7.114;2023-03-23T17:24:42;14.70;1.00
22532;DHT22;11432;46.924;7.114;2023-03-23T17:27:08;14.70;1.00
22532;DHT22;11432;46.924;7.114;2023-03-23T17:29:34;14.70;1.00
22532;DHT22;11432;46.924;7.114;2023-03-23T17:32:00;14.70;1.00
22532;DHT22;11432;46.924;7.114;2023-03-23T17:34:26;14.70;1.00
22532;DHT22;11432;46.924;7.114;2023-03-23T17:36:51;14.70;1.00
22532;DHT22;11432;46.924;7.114;2023-03-23T17:39:17;14.70;1.00
22532;DHT22;11432;46.924;7.114;2023-03-23T17:41:42;14.70;1.00
22532;DHT22;11432;46.924;7.114;2023-03-23T17:44:08;14.70;1.00
22532;DHT22;11432;46.924;7.114;2023-03-23T17:46:34;14.60;1.00
22532;DHT22;11432;46.924;7.114;2023-03-23T17:48:59;14.60;1.00